sensor_id;sensor_type;location;lat;lon;timestamp;pressure;altitude;pressure_sealevel;temperature;humidity
64292;BME280;50628;51.008;13.658;2023-06-22T00:01:26;100031.94;;;20.44;100.00
64292;BME280;50628;51.008;13.658;2023-06-22T00:06:28;100023.00;;;20.45;100.00
64292;BME280;50628;51.008;13.658;2023-06-22T00:11:30;100042.69;;;20.43;100.00
64292;BME280;50628;51.008;13.658;2023-06-22T00:16:35;100040.31;;;20.48;100.00
64292;BME280;50628;51.008;13.658;2023-06-22T00:21:37;100051.25;;;20.45;100.00
64292;BME280;50628;51.008;13.658;2023-06-22T00:26:39;100064.09;;;20.48;100.00
64292;BME280;50628;51.008;13.658;2023-06-22T00:31:45;100064.66;;;20.43;100.00
64292;BME280;50628;51.008;13.658;2023-06-22T00:36:47;100058.09;;;20.39;100.00
64292;BME280;50628;51.008;13.658;2023-06-22T00:41:49;100047.09;;;20.13;100.00
64292;BME280;50628;51.008;13.658;2023-06-22T00:46:53;100058.31;;;20.15;100.00
64292;BME280;50628;51.008;13.658;2023-06-22T00:51:55;100050.38;;;20.15;100.00
64292;BME280;50628;51.008;13.658;2023-06-22T00:56:58;100057.19;;;20.09;100.00
64292;BME280;50628;51.008;13.658;2023-06-22T01:02:01;100048.50;;;20.00;100.00
64292;BME280;50628;51.008;13.658;2023-06-22T01:07:10;100043.69;;;20.04;100.00
64292;BME280;50628;51.008;13.658;2023-06-22T01:12:18;100048.22;;;19.95;100.00
64292;BME280;50628;51.008;13.658;2023-06-22T01:17:23;100043.06;;;19.79;100.00
64292;BME280;50628;51.008;13.658;2023-06-22T01:22:30;100043.47;;;19.67;100.00
64292;BME280;50628;51.008;13.658;2023-06-22T01:27:40;100043.13;;;19.62;100.00
64292;BME280;50628;51.008;13.658;2023-06-22T01:32:50;100053.38;;;19.65;100.00
64292;BME280;50628;51.008;13.658;2023-06-22T01:37:54;100055.06;;;19.58;100.00
64292;BME280;50628;51.008;13.658;2023-06-22T01:42:57;100050.50;;;19.44;100.00
64292;BME280;50628;51.008;13.658;2023-06-22T01:48:01;100053.44;;;19.49;100.00
64292;BME280;50628;51.008;13.658;2023-06-22T01:53:03;100046.16;;;19.28;100.00
64292;BME280;50628;51.008;13.658;2023-06-22T01:58:07;100043.16;;;19.31;100.00
64292;BME280;50628;51.008;13.658;2023-06-22T02:03:14;100042.34;;;19.31;100.00
64292;BME280;50628;51.008;13.658;2023-06-22T02:08:20;100041.19;;;19.33;100.00
64292;BME280;50628;51.008;13.658;2023-06-22T02:13:24;100036.31;;;19.14;100.00
64292;BME280;50628;51.008;13.658;2023-06-22T02:18:27;100038.59;;;19.17;100.00
64292;BME280;50628;51.008;13.658;2023-06-22T02:23:29;100043.66;;;18.95;100.00
64292;BME280;50628;51.008;13.658;2023-06-22T02:28:36;100051.41;;;18.89;100.00
64292;BME280;50628;51.008;13.658;2023-06-22T02:33:39;100035.13;;;18.85;100.00
64292;BME280;50628;51.008;13.658;2023-06-22T02:38:41;100046.28;;;18.95;100.00
64292;BME280;50628;51.008;13.658;2023-06-22T02:43:47;100064.44;;;18.82;100.00
64292;BME280;50628;51.008;13.658;2023-06-22T02:48:50;100063.13;;;18.86;100.00
64292;BME280;50628;51.008;13.658;2023-06-22T02:53:52;100066.94;;;18.67;100.00
64292;BME280;50628;51.008;13.658;2023-06-22T02:58:58;100061.50;;;18.69;100.00
64292;BME280;50628;51.008;13.658;2023-06-22T03:04:07;100070.25;;;18.77;100.00
64292;BME280;50628;51.008;13.658;2023-06-22T03:09:09;100067.91;;;18.66;100.00
64292;BME280;50628;51.008;13.658;2023-06-22T03:14:12;100059.34;;;18.72;100.00
64292;BME280;50628;51.008;13.658;2023-06-22T03:19:15;100052.25;;;18.73;100.00
64292;BME280;50628;51.008;13.658;2023-06-22T03:24:17;100023.25;;;18.65;100.00
64292;BME280;50628;51.008;13.658;2023-06-22T03:29:19;100021.13;;;18.68;100.00
64292;BME280;50628;51.008;13.658;2023-06-22T03:34:22;100038.28;;;18.56;100.00
64292;BME280;50628;51.008;13.658;2023-06-22T03:39:27;100035.00;;;18.54;100.00
64292;BME280;50628;51.008;13.658;2023-06-22T03:44:28;100040.75;;;18.57;100.00
64292;BME280;50628;51.008;13.658;2023-06-22T03:49:32;100047.34;;;18.53;100.00
64292;BME280;50628;51.008;13.658;2023-06-22T03:54:34;100038.13;;;18.49;100.00
64292;BME280;50628;51.008;13.658;2023-06-22T03:59:36;100035.00;;;18.54;100.00
64292;BME280;50628;51.008;13.658;2023-06-22T04:04:39;100038.09;;;18.66;100.00
64292;BME280;50628;51.008;13.658;2023-06-22T04:09:41;100048.31;;;18.69;100.00
64292;BME280;50628;51.008;13.658;2023-06-22T04:14:42;100045.50;;;18.62;100.00
64292;BME280;50628;51.008;13.658;2023-06-22T04:19:46;100044.34;;;18.65;100.00
64292;BME280;50628;51.008;13.658;2023-06-22T04:24:48;100049.63;;;18.81;100.00
64292;BME280;50628;51.008;13.658;2023-06-22T04:29:53;100051.44;;;18.80;100.00
64292;BME280;50628;51.008;13.658;2023-06-22T04:34:56;100046.94;;;18.89;100.00
64292;BME280;50628;51.008;13.658;2023-06-22T04:39:58;100066.03;;;19.08;100.00
64292;BME280;50628;51.008;13.658;2023-06-22T04:45:00;100071.22;;;19.24;100.00
64292;BME280;50628;51.008;13.658;2023-06-22T04:50:04;100089.00;;;19.30;100.00
64292;BME280;50628;51.008;13.658;2023-06-22T04:55:07;100092.41;;;19.47;100.00
64292;BME280;50628;51.008;13.658;2023-06-22T05:00:10;100089.81;;;19.70;100.00
64292;BME280;50628;51.008;13.658;2023-06-22T05:05:18;100101.81;;;19.81;100.00
64292;BME280;50628;51.008;13.658;2023-06-22T05:10:20;100114.22;;;20.03;100.00
64292;BME280;50628;51.008;13.658;2023-06-22T05:15:22;100113.69;;;20.46;100.00
64292;BME280;50628;51.008;13.658;2023-06-22T05:20:29;100116.13;;;20.56;100.00
64292;BME280;50628;51.008;13.658;2023-06-22T05:25:31;100115.72;;;20.67;100.00
64292;BME280;50628;51.008;13.658;2023-06-22T05:30:34;100119.28;;;20.74;100.00
64292;BME280;50628;51.008;13.658;2023-06-22T05:35:37;100091.56;;;21.14;100.00
64292;BME280;50628;51.008;13.658;2023-06-22T05:40:39;100087.88;;;21.30;100.00
64292;BME280;50628;51.008;13.658;2023-06-22T05:45:41;100084.03;;;21.48;100.00
64292;BME280;50628;51.008;13.658;2023-06-22T05:50:44;100085.00;;;21.61;100.00
64292;BME280;50628;51.008;13.658;2023-06-22T05:55:46;100084.50;;;21.73;100.00
64292;BME280;50628;51.008;13.658;2023-06-22T06:00:48;100068.34;;;21.89;100.00
64292;BME280;50628;51.008;13.658;2023-06-22T06:05:52;100065.91;;;22.31;100.00
64292;BME280;50628;51.008;13.658;2023-06-22T06:10:54;100061.81;;;22.56;100.00
64292;BME280;50628;51.008;13.658;2023-06-22T06:15:56;100040.81;;;22.96;100.00
64292;BME280;50628;51.008;13.658;2023-06-22T06:21:01;100026.03;;;23.22;100.00
64292;BME280;50628;51.008;13.658;2023-06-22T06:26:02;99945.72;;;23.20;100.00
64292;BME280;50628;51.008;13.658;2023-06-22T06:31:07;99923.25;;;23.09;100.00
64292;BME280;50628;51.008;13.658;2023-06-22T06:36:10;99957.44;;;23.52;100.00
64292;BME280;50628;51.008;13.658;2023-06-22T06:41:13;99979.06;;;23.36;100.00
64292;BME280;50628;51.008;13.658;2023-06-22T06:46:15;99955.19;;;23.55;100.00
64292;BME280;50628;51.008;13.658;2023-06-22T06:51:20;99952.13;;;23.72;100.00
64292;BME280;50628;51.008;13.658;2023-06-22T06:56:22;99953.78;;;23.93;100.00
64292;BME280;50628;51.008;13.658;2023-06-22T07:01:24;99950.53;;;23.97;100.00
64292;BME280;50628;51.008;13.658;2023-06-22T07:06:27;99956.22;;;24.14;100.00
64292;BME280;50628;51.008;13.658;2023-06-22T07:11:33;99957.59;;;24.50;100.00
64292;BME280;50628;51.008;13.658;2023-06-22T07:16:35;99959.56;;;24.75;100.00
64292;BME280;50628;51.008;13.658;2023-06-22T07:21:39;99961.00;;;25.16;100.00
64292;BME280;50628;51.008;13.658;2023-06-22T07:26:41;99942.28;;;25.36;100.00
64292;BME280;50628;51.008;13.658;2023-06-22T07:31:46;99948.63;;;25.92;100.00
64292;BME280;50628;51.008;13.658;2023-06-22T07:36:51;99944.03;;;25.99;100.00
64292;BME280;50628;51.008;13.658;2023-06-22T07:41:53;99944.69;;;25.37;100.00
64292;BME280;50628;51.008;13.658;2023-06-22T07:46:55;99947.53;;;25.67;100.00
64292;BME280;50628;51.008;13.658;2023-06-22T07:51:58;99958.81;;;25.69;100.00
64292;BME280;50628;51.008;13.658;2023-06-22T07:57:02;99952.63;;;25.76;100.00
64292;BME280;50628;51.008;13.658;2023-06-22T08:02:05;99943.59;;;26.02;100.00
64292;BME280;50628;51.008;13.658;2023-06-22T08:07:10;99935.97;;;26.05;100.00
64292;BME280;50628;51.008;13.658;2023-06-22T08:12:12;99939.31;;;26.38;100.00
64292;BME280;50628;51.008;13.658;2023-06-22T08:17:14;99933.56;;;25.72;100.00
64292;BME280;50628;51.008;13.658;2023-06-22T08:22:17;99936.66;;;26.38;100.00
64292;BME280;50628;51.008;13.658;2023-06-22T08:27:19;99938.88;;;26.77;100.00
64292;BME280;50628;51.008;13.658;2023-06-22T08:32:24;99923.19;;;27.00;100.00
64292;BME280;50628;51.008;13.658;2023-06-22T08:37:28;99922.00;;;26.95;100.00
64292;BME280;50628;51.008;13.658;2023-06-22T08:42:33;99921.09;;;27.32;100.00
64292;BME280;50628;51.008;13.658;2023-06-22T08:47:34;99916.00;;;27.42;99.80
64292;BME280;50628;51.008;13.658;2023-06-22T08:52:39;99913.34;;;27.42;99.99
64292;BME280;50628;51.008;13.658;2023-06-22T08:57:41;99911.59;;;27.71;97.75
64292;BME280;50628;51.008;13.658;2023-06-22T09:02:44;99907.28;;;27.35;100.00
64292;BME280;50628;51.008;13.658;2023-06-22T09:07:48;99907.47;;;27.87;97.33
64292;BME280;50628;51.008;13.658;2023-06-22T09:12:50;99897.22;;;28.08;92.83
64292;BME280;50628;51.008;13.658;2023-06-22T09:17:52;99895.94;;;27.98;92.32
64292;BME280;50628;51.008;13.658;2023-06-22T09:22:56;99892.88;;;28.07;91.24
64292;BME280;50628;51.008;13.658;2023-06-22T09:27:58;99888.25;;;28.02;92.85
64292;BME280;50628;51.008;13.658;2023-06-22T09:33:00;99883.56;;;28.21;91.75
64292;BME280;50628;51.008;13.658;2023-06-22T09:38:04;99879.38;;;28.65;86.03
64292;BME280;50628;51.008;13.658;2023-06-22T09:43:06;99880.34;;;28.59;85.29
64292;BME280;50628;51.008;13.658;2023-06-22T09:48:07;99873.28;;;28.30;86.07
64292;BME280;50628;51.008;13.658;2023-06-22T09:53:12;99871.53;;;28.47;84.12
64292;BME280;50628;51.008;13.658;2023-06-22T09:58:14;99864.97;;;28.55;84.50
64292;BME280;50628;51.008;13.658;2023-06-22T10:03:16;99865.44;;;28.80;82.79
64292;BME280;50628;51.008;13.658;2023-06-22T10:08:19;99853.56;;;28.88;82.67
64292;BME280;50628;51.008;13.658;2023-06-22T10:13:21;99859.34;;;29.30;81.77
64292;BME280;50628;51.008;13.658;2023-06-22T10:18:23;99852.53;;;29.40;78.73
64292;BME280;50628;51.008;13.658;2023-06-22T10:23:26;99844.16;;;29.70;76.70
64292;BME280;50628;51.008;13.658;2023-06-22T10:28:28;99844.47;;;29.95;74.91
64292;BME280;50628;51.008;13.658;2023-06-22T10:33:30;99831.94;;;30.01;75.17
64292;BME280;50628;51.008;13.658;2023-06-22T10:38:33;99830.00;;;30.18;71.69
64292;BME280;50628;51.008;13.658;2023-06-22T10:43:35;99827.25;;;30.13;70.51
64292;BME280;50628;51.008;13.658;2023-06-22T10:48:36;99814.31;;;30.27;70.66
64292;BME280;50628;51.008;13.658;2023-06-22T10:53:40;99823.88;;;30.45;69.86
64292;BME280;50628;51.008;13.658;2023-06-22T10:58:42;99820.78;;;30.58;69.44
64292;BME280;50628;51.008;13.658;2023-06-22T11:03:44;99815.47;;;30.91;66.39
64292;BME280;50628;51.008;13.658;2023-06-22T11:08:47;99808.00;;;30.44;68.40
64292;BME280;50628;51.008;13.658;2023-06-22T11:13:49;99810.81;;;30.27;68.85
64292;BME280;50628;51.008;13.658;2023-06-22T11:18:51;99802.50;;;30.55;67.36
64292;BME280;50628;51.008;13.658;2023-06-22T11:23:54;99792.97;;;30.43;66.78
64292;BME280;50628;51.008;13.658;2023-06-22T11:28:56;99793.53;;;31.04;65.39
64292;BME280;50628;51.008;13.658;2023-06-22T11:33:58;99773.69;;;30.78;65.76
64292;BME280;50628;51.008;13.658;2023-06-22T11:39:02;99784.34;;;31.85;62.12
64292;BME280;50628;51.008;13.658;2023-06-22T11:44:05;99765.63;;;30.78;63.58
64292;BME280;50628;51.008;13.658;2023-06-22T11:49:08;99767.06;;;30.58;64.29
64292;BME280;50628;51.008;13.658;2023-06-22T11:54:11;99769.00;;;31.80;61.80
64292;BME280;50628;51.008;13.658;2023-06-22T11:59:13;99755.09;;;31.41;63.71
64292;BME280;50628;51.008;13.658;2023-06-22T12:04:15;99743.59;;;32.29;60.70
64292;BME280;50628;51.008;13.658;2023-06-22T12:09:19;99750.78;;;32.03;60.93
64292;BME280;50628;51.008;13.658;2023-06-22T12:14:21;99737.41;;;32.85;59.21
64292;BME280;50628;51.008;13.658;2023-06-22T12:19:23;99733.56;;;33.37;58.28
64292;BME280;50628;51.008;13.658;2023-06-22T12:24:27;99726.03;;;33.29;57.04
64292;BME280;50628;51.008;13.658;2023-06-22T12:29:29;99710.66;;;33.34;56.21
64292;BME280;50628;51.008;13.658;2023-06-22T12:34:31;99703.50;;;33.74;55.60
64292;BME280;50628;51.008;13.658;2023-06-22T12:39:35;99704.56;;;32.67;58.30
64292;BME280;50628;51.008;13.658;2023-06-22T12:44:37;99700.22;;;32.92;56.60
64292;BME280;50628;51.008;13.658;2023-06-22T12:49:39;99694.31;;;32.64;56.76
64292;BME280;50628;51.008;13.658;2023-06-22T12:54:42;99684.59;;;32.32;57.53
64292;BME280;50628;51.008;13.658;2023-06-22T12:59:44;99685.44;;;32.59;57.45
64292;BME280;50628;51.008;13.658;2023-06-22T13:04:46;99686.78;;;33.72;55.04
64292;BME280;50628;51.008;13.658;2023-06-22T13:09:49;99675.41;;;33.75;53.99
64292;BME280;50628;51.008;13.658;2023-06-22T13:14:52;99680.06;;;34.09;52.34
64292;BME280;50628;51.008;13.658;2023-06-22T13:19:54;99673.19;;;34.27;52.07
64292;BME280;50628;51.008;13.658;2023-06-22T13:24:57;99671.31;;;34.28;51.64
64292;BME280;50628;51.008;13.658;2023-06-22T13:30:00;99663.44;;;34.65;50.77
64292;BME280;50628;51.008;13.658;2023-06-22T13:35:03;99643.78;;;35.32;49.44
64292;BME280;50628;51.008;13.658;2023-06-22T13:40:08;99643.81;;;34.79;49.99
64292;BME280;50628;51.008;13.658;2023-06-22T13:45:10;99623.91;;;34.40;50.16
64292;BME280;50628;51.008;13.658;2023-06-22T13:50:12;99605.41;;;35.06;49.24
64292;BME280;50628;51.008;13.658;2023-06-22T13:55:16;99615.97;;;35.02;49.58
64292;BME280;50628;51.008;13.658;2023-06-22T14:00:18;99614.44;;;35.20;49.05
64292;BME280;50628;51.008;13.658;2023-06-22T14:05:20;99618.47;;;34.99;49.00
64292;BME280;50628;51.008;13.658;2023-06-22T14:10:23;99613.59;;;34.13;49.64
64292;BME280;50628;51.008;13.658;2023-06-22T14:15:25;99601.81;;;33.99;50.48
64292;BME280;50628;51.008;13.658;2023-06-22T14:20:27;99594.66;;;33.79;50.65
64292;BME280;50628;51.008;13.658;2023-06-22T14:25:31;99588.50;;;33.18;50.75
64292;BME280;50628;51.008;13.658;2023-06-22T14:30:32;99583.56;;;33.36;51.44
64292;BME280;50628;51.008;13.658;2023-06-22T14:35:34;99585.63;;;34.57;49.91
64292;BME280;50628;51.008;13.658;2023-06-22T14:40:38;99586.22;;;35.02;47.77
64292;BME280;50628;51.008;13.658;2023-06-22T14:45:40;99561.44;;;35.76;46.98
64292;BME280;50628;51.008;13.658;2023-06-22T14:50:42;99549.34;;;35.11;48.01
64292;BME280;50628;51.008;13.658;2023-06-22T14:55:45;99525.22;;;34.72;48.21
64292;BME280;50628;51.008;13.658;2023-06-22T15:00:47;99522.28;;;35.49;46.00
64292;BME280;50628;51.008;13.658;2023-06-22T15:05:50;99529.75;;;34.77;47.12
64292;BME280;50628;51.008;13.658;2023-06-22T15:10:53;99525.72;;;35.55;46.35
64292;BME280;50628;51.008;13.658;2023-06-22T15:15:56;99534.03;;;35.02;47.24
64292;BME280;50628;51.008;13.658;2023-06-22T15:20:57;99517.91;;;35.35;46.25
64292;BME280;50628;51.008;13.658;2023-06-22T15:26:03;99495.16;;;35.73;45.58
64292;BME280;50628;51.008;13.658;2023-06-22T15:31:06;99493.34;;;35.83;45.36
64292;BME280;50628;51.008;13.658;2023-06-22T15:36:08;99487.88;;;35.17;46.76
64292;BME280;50628;51.008;13.658;2023-06-22T15:41:11;99488.06;;;34.83;47.94
64292;BME280;50628;51.008;13.658;2023-06-22T15:46:13;99477.03;;;35.36;46.25
64292;BME280;50628;51.008;13.658;2023-06-22T15:51:17;99458.38;;;34.97;47.44
64292;BME280;50628;51.008;13.658;2023-06-22T15:56:21;99446.75;;;34.77;48.38
64292;BME280;50628;51.008;13.658;2023-06-22T16:01:24;99458.72;;;34.47;48.78
64292;BME280;50628;51.008;13.658;2023-06-22T16:06:26;99449.16;;;34.98;47.87
64292;BME280;50628;51.008;13.658;2023-06-22T16:11:29;99440.13;;;34.45;48.89
64292;BME280;50628;51.008;13.658;2023-06-22T16:16:31;99448.91;;;33.45;51.52
64292;BME280;50628;51.008;13.658;2023-06-22T16:21:33;99438.38;;;32.59;54.48
64292;BME280;50628;51.008;13.658;2023-06-22T16:26:40;99434.63;;;32.50;55.47
64292;BME280;50628;51.008;13.658;2023-06-22T16:31:42;99434.88;;;32.53;56.42
64292;BME280;50628;51.008;13.658;2023-06-22T16:36:44;99440.47;;;32.67;56.67
64292;BME280;50628;51.008;13.658;2023-06-22T16:41:47;99445.97;;;32.37;57.51
64292;BME280;50628;51.008;13.658;2023-06-22T16:46:50;99441.72;;;32.10;58.96
64292;BME280;50628;51.008;13.658;2023-06-22T16:51:52;99433.66;;;32.05;59.31
64292;BME280;50628;51.008;13.658;2023-06-22T16:56:55;99422.88;;;32.05;60.54
64292;BME280;50628;51.008;13.658;2023-06-22T17:02:00;99396.84;;;31.59;61.96
64292;BME280;50628;51.008;13.658;2023-06-22T17:07:08;99395.75;;;31.71;63.51
64292;BME280;50628;51.008;13.658;2023-06-22T17:12:13;99389.06;;;31.53;64.29
64292;BME280;50628;51.008;13.658;2023-06-22T17:17:15;99369.94;;;31.54;65.94
64292;BME280;50628;51.008;13.658;2023-06-22T17:22:18;99353.81;;;31.23;67.61
64292;BME280;50628;51.008;13.658;2023-06-22T17:27:28;99360.53;;;30.95;71.02
64292;BME280;50628;51.008;13.658;2023-06-22T17:32:30;99367.78;;;31.00;73.26
64292;BME280;50628;51.008;13.658;2023-06-22T17:37:34;99351.84;;;30.68;75.98
64292;BME280;50628;51.008;13.658;2023-06-22T17:42:49;99338.13;;;30.74;77.26
64292;BME280;50628;51.008;13.658;2023-06-22T17:47:52;99338.97;;;30.65;79.98
64292;BME280;50628;51.008;13.658;2023-06-22T17:52:55;99333.00;;;30.47;82.44
64292;BME280;50628;51.008;13.658;2023-06-22T17:57:58;99331.75;;;30.07;85.50
64292;BME280;50628;51.008;13.658;2023-06-22T18:03:00;99308.13;;;29.99;87.88
64292;BME280;50628;51.008;13.658;2023-06-22T18:08:04;99304.97;;;29.65;90.36
64292;BME280;50628;51.008;13.658;2023-06-22T18:13:07;99295.13;;;29.75;91.13
64292;BME280;50628;51.008;13.658;2023-06-22T18:18:10;99295.75;;;29.50;92.92
64292;BME280;50628;51.008;13.658;2023-06-22T18:23:12;99298.31;;;29.03;97.85
64292;BME280;50628;51.008;13.658;2023-06-22T18:28:17;99292.84;;;29.15;97.86
64292;BME280;50628;51.008;13.658;2023-06-22T18:33:20;99284.69;;;29.04;98.72
64292;BME280;50628;51.008;13.658;2023-06-22T18:38:22;99273.00;;;28.83;99.74
64292;BME280;50628;51.008;13.658;2023-06-22T18:43:25;99277.31;;;28.89;98.73
64292;BME280;50628;51.008;13.658;2023-06-22T18:48:27;99289.69;;;28.63;100.00
64292;BME280;50628;51.008;13.658;2023-06-22T18:53:29;99288.59;;;28.37;100.00
64292;BME280;50628;51.008;13.658;2023-06-22T18:58:33;99296.31;;;28.34;100.00
64292;BME280;50628;51.008;13.658;2023-06-22T19:03:35;99288.41;;;28.22;100.00
64292;BME280;50628;51.008;13.658;2023-06-22T19:09:14;99302.81;;;28.16;100.00
64292;BME280;50628;51.008;13.658;2023-06-22T19:14:21;99301.13;;;28.10;100.00
64292;BME280;50628;51.008;13.658;2023-06-22T19:19:23;99306.66;;;28.03;100.00
64292;BME280;50628;51.008;13.658;2023-06-22T19:24:29;99305.81;;;27.97;100.00
64292;BME280;50628;51.008;13.658;2023-06-22T19:29:33;99295.00;;;27.53;100.00
64292;BME280;50628;51.008;13.658;2023-06-22T19:34:41;99289.94;;;27.74;100.00
64292;BME280;50628;51.008;13.658;2023-06-22T19:39:46;99267.03;;;27.61;100.00
64292;BME280;50628;51.008;13.658;2023-06-22T19:44:49;99270.25;;;27.41;100.00
64292;BME280;50628;51.008;13.658;2023-06-22T19:49:58;99265.69;;;27.41;100.00
64292;BME280;50628;51.008;13.658;2023-06-22T19:55:00;99248.97;;;27.29;100.00
64292;BME280;50628;51.008;13.658;2023-06-22T20:00:07;99240.44;;;27.15;100.00
64292;BME280;50628;51.008;13.658;2023-06-22T20:05:13;99226.41;;;27.20;100.00
64292;BME280;50628;51.008;13.658;2023-06-22T20:10:18;99250.19;;;27.05;100.00
64292;BME280;50628;51.008;13.658;2023-06-22T20:15:23;99240.38;;;27.10;100.00
64292;BME280;50628;51.008;13.658;2023-06-22T20:20:27;99214.97;;;26.91;100.00
64292;BME280;50628;51.008;13.658;2023-06-22T20:25:31;99192.69;;;26.51;100.00
64292;BME280;50628;51.008;13.658;2023-06-22T20:30:35;99189.66;;;26.60;100.00
64292;BME280;50628;51.008;13.658;2023-06-22T20:35:37;99197.81;;;26.53;100.00
64292;BME280;50628;51.008;13.658;2023-06-22T20:40:38;99187.28;;;26.46;100.00
64292;BME280;50628;51.008;13.658;2023-06-22T20:45:42;99188.28;;;26.57;100.00
64292;BME280;50628;51.008;13.658;2023-06-22T20:50:44;99166.94;;;26.57;100.00
64292;BME280;50628;51.008;13.658;2023-06-22T20:55:46;99141.81;;;26.24;100.00
64292;BME280;50628;51.008;13.658;2023-06-22T21:00:49;99152.88;;;26.33;100.00
64292;BME280;50628;51.008;13.658;2023-06-22T21:05:51;99162.34;;;26.41;100.00
64292;BME280;50628;51.008;13.658;2023-06-22T21:10:53;99157.34;;;26.44;100.00
64292;BME280;50628;51.008;13.658;2023-06-22T21:15:56;99186.28;;;26.36;100.00
64292;BME280;50628;51.008;13.658;2023-06-22T21:20:58;99202.13;;;26.42;100.00
64292;BME280;50628;51.008;13.658;2023-06-22T21:26:00;99200.81;;;26.28;100.00
64292;BME280;50628;51.008;13.658;2023-06-22T21:31:03;99235.09;;;26.07;100.00
64292;BME280;50628;51.008;13.658;2023-06-22T21:36:05;99235.59;;;25.40;100.00
64292;BME280;50628;51.008;13.658;2023-06-22T21:41:08;99204.41;;;25.29;100.00
64292;BME280;50628;51.008;13.658;2023-06-22T21:46:11;99220.69;;;24.62;100.00
64292;BME280;50628;51.008;13.658;2023-06-22T21:51:13;99204.59;;;24.69;100.00
64292;BME280;50628;51.008;13.658;2023-06-22T21:56:15;99213.38;;;24.39;100.00
64292;BME280;50628;51.008;13.658;2023-06-22T22:01:18;99243.91;;;24.55;100.00
64292;BME280;50628;51.008;13.658;2023-06-22T22:06:20;99287.47;;;24.72;100.00
64292;BME280;50628;51.008;13.658;2023-06-22T22:11:23;99299.66;;;24.61;100.00
64292;BME280;50628;51.008;13.658;2023-06-22T22:16:27;99317.72;;;24.59;100.00
64292;BME280;50628;51.008;13.658;2023-06-22T22:21:29;99337.56;;;24.27;100.00
64292;BME280;50628;51.008;13.658;2023-06-22T22:26:31;99335.97;;;23.82;100.00
64292;BME280;50628;51.008;13.658;2023-06-22T22:31:37;99350.53;;;23.54;100.00
64292;BME280;50628;51.008;13.658;2023-06-22T22:36:39;99386.97;;;23.41;100.00
64292;BME280;50628;51.008;13.658;2023-06-22T22:41:41;99373.53;;;23.36;100.00
64292;BME280;50628;51.008;13.658;2023-06-22T22:46:44;99385.78;;;23.11;100.00
64292;BME280;50628;51.008;13.658;2023-06-22T22:51:46;99408.06;;;22.59;100.00
64292;BME280;50628;51.008;13.658;2023-06-22T22:56:49;99467.03;;;22.54;100.00
64292;BME280;50628;51.008;13.658;2023-06-22T23:01:52;99502.56;;;21.18;100.00
64292;BME280;50628;51.008;13.658;2023-06-22T23:06:54;99584.66;;;19.70;100.00
64292;BME280;50628;51.008;13.658;2023-06-22T23:11:56;99717.00;;;19.22;100.00
64292;BME280;50628;51.008;13.658;2023-06-22T23:16:59;99677.28;;;18.63;100.00
64292;BME280;50628;51.008;13.658;2023-06-22T23:22:01;99731.63;;;18.41;100.00
64292;BME280;50628;51.008;13.658;2023-06-22T23:27:04;99773.66;;;18.34;100.00
64292;BME280;50628;51.008;13.658;2023-06-22T23:32:09;99741.22;;;18.33;100.00
64292;BME280;50628;51.008;13.658;2023-06-22T23:37:11;99723.91;;;18.39;100.00
64292;BME280;50628;51.008;13.658;2023-06-22T23:42:14;99702.00;;;18.85;100.00
64292;BME280;50628;51.008;13.658;2023-06-22T23:47:17;99720.75;;;18.90;100.00
64292;BME280;50628;51.008;13.658;2023-06-22T23:52:19;99719.66;;;18.84;100.00
64292;BME280;50628;51.008;13.658;2023-06-22T23:57:21;99706.16;;;19.17;100.00
